Latest Weather Observations for Cape Ferguson

IDQ60801

Issued at 8:35 pm EST Sunday 20 April 2014 (issued every 30 minutes, with the page automatically refreshed every 10 minutes)

About weather observations | Map of weather stations | Latest weather observations for QLD | Other Formats
Station Details ID: 032182 Name: CAPE FERGUSON NTC AWS Lat: -19.28 Lon: 147.06 Height: 0.0 m
Data from the previous 72 hours. | See also: Recent months for locations in Queensland
Date/Time
EST
Temp
°C
App
Temp
°C
Dew
Point
Rel
Hum
%
Delta-T
°C
Wind Press
QNH
hPa
Press
MSL
hPa
Rain
since 9 am
mm
Dir
 
Spd
km/h
Gust
km/h
Spd
kts
Gust
kts
20/08:30pm 26.4 - - - - E 26 32 14 17 1016.6 - -
20/08:00pm 26.3 - - - - E 24 32 13 17 1016.2 1016.2 -
20/07:30pm 26.3 - - - - ESE 24 30 13 16 1015.9 - -
20/07:00pm 26.3 - - - - E 24 30 13 16 1015.7 1015.7 -
20/06:30pm 26.2 - - - - E 22 28 12 15 1015.3 - -
20/06:00pm 26.3 - - - - E 20 26 11 14 1015.1 1015.1 -
20/05:30pm 26.3 - - - - E 20 26 11 14 1014.9 - -
20/05:00pm 26.2 - - - - E 22 26 12 14 1014.6 1014.6 -
20/04:30pm 26.2 - - - - E 22 26 12 14 1014.2 - -
20/04:00pm 26.1 - - - - E 20 26 11 14 1014.0 1014.0 -
20/03:30pm 26.1 - - - - E 19 24 10 13 1014.0 - -
20/03:00pm 26.1 - - - - E 19 22 10 12 1013.9 1013.9 -
20/02:30pm 26.0 - - - - E 17 22 9 12 1013.8 - -
20/02:00pm 26.1 - - - - E 15 20 8 11 1014.0 1014.0 -
20/01:30pm 25.9 - - - - ESE 13 17 7 9 1014.1 - -
20/01:00pm 25.9 - - - - ESE 15 19 8 10 1014.5 1014.5 -
20/12:30pm 26.0 - - - - E 13 17 7 9 1014.9 - -
20/12:00pm 25.9 - - - - ESE 13 19 7 10 1015.4 1015.4 -
20/11:30am 25.7 - - - - ESE 11 15 6 8 1015.7 - -
20/11:00am 25.5 - - - - SE 11 15 6 8 1015.9 1015.9 -
20/10:30am 25.3 - - - - SE 11 15 6 8 1016.2 - -
20/10:00am 25.1 - - - - SE 11 15 6 8 1016.3 1016.3 -
20/09:30am 24.9 - - - - SSE 9 13 5 7 1016.3 - -
20/09:00am 24.7 - - - - SSE 13 17 7 9 1016.0 1016.0 -
20/08:30am 24.5 - - - - SSE 13 15 7 8 1015.8 - -
20/08:00am 24.5 - - - - SSE 13 15 7 8 1015.6 1015.6 -
20/07:30am 24.6 - - - - SE 13 15 7 8 1015.3 - -
20/07:00am 24.5 - - - - SE 13 17 7 9 1015.0 1015.0 -
20/06:30am 24.6 - - - - SE 13 17 7 9 1014.6 - -
20/06:00am 24.9 - - - - SE 15 20 8 11 1014.4 1014.4 -
20/05:30am 25.5 - - - - ESE 15 22 8 12 1014.1 - -
20/05:00am 25.5 - - - - E 17 20 9 11 1014.0 1014.0 -
20/04:30am 25.6 - - - - E 17 22 9 12 1013.8 - -
20/04:00am 25.6 - - - - E 15 20 8 11 1013.7 1013.7 -
20/03:30am 25.6 - - - - E 17 20 9 11 1013.7 - -
20/03:00am 25.6 - - - - E 15 20 8 11 1013.7 1013.7 -
20/02:30am 25.7 - - - - E 15 20 8 11 1013.8 - -
20/02:00am 25.7 - - - - E 17 22 9 12 1014.0 1014.0 -
20/01:30am 25.8 - - - - E 17 20 9 11 1014.1 - -
20/01:00am 25.8 - - - - E 15 20 8 11 1014.5 1014.5 -
20/12:30am 26.1 - - - - E 19 24 10 13 1014.9 - -
20/12:00am 26.0 - - - - E 19 24 10 13 1015.0 1015.0 -
 
Date/Time
EST
Temp
°C
App
Temp
°C
Dew
Point
Rel
Hum
%
Delta-T
°C
Wind Press
QNH
hPa
Press
MSL
hPa
Rain
since 9 am
mm
Dir
 
Spd
km/h
Gust
km/h
Spd
kts
Gust
kts
19/11:30pm 26.0 - - - - E 19 24 10 13 1015.1 - -
19/11:00pm 26.0 - - - - E 19 26 10 14 1015.2 1015.2 -
19/10:30pm 26.2 - - - - E 19 22 10 12 1015.3 - -
19/10:00pm 26.2 - - - - E 17 22 9 12 1015.5 1015.5 -
19/09:30pm 26.2 - - - - E 17 22 9 12 1015.5 - -
19/09:00pm 26.2 - - - - E 19 24 10 13 1015.5 1015.5 -
19/08:30pm 26.1 - - - - ENE 13 17 7 9 1015.2 - -
19/08:00pm 26.1 - - - - E 15 19 8 10 1014.9 1014.9 -
19/07:30pm 26.2 - - - - E 15 19 8 10 1014.6 - -
19/07:00pm 26.3 - - - - ENE 13 19 7 10 1014.3 1014.3 -
19/06:30pm 26.2 - - - - E 17 20 9 11 1014.2 - -
19/06:00pm 26.3 - - - - ENE 15 19 8 10 1013.9 1013.9 -
19/05:30pm 26.3 - - - - ENE 17 22 9 12 1013.7 - -
19/05:00pm 26.4 - - - - ENE 15 19 8 10 1013.4 1013.4 -
19/04:30pm 26.4 - - - - ENE 17 22 9 12 1013.3 - -
19/04:00pm 26.4 - - - - ENE 17 20 9 11 1013.4 1013.4 -
19/03:30pm 26.4 - - - - ENE 17 20 9 11 1013.5 - -
19/03:00pm 26.4 - - - - ENE 17 22 9 12 1013.5 1013.5 -
19/02:30pm 26.4 - - - - ENE 17 20 9 11 1013.7 - -
19/02:00pm 26.4 - - - - ENE 15 20 8 11 1014.0 1014.0 -
19/01:30pm 26.3 - - - - ENE 15 19 8 10 1014.3 - -
19/01:00pm 26.3 - - - - ENE 17 20 9 11 1014.5 1014.5 -
19/12:30pm 26.3 - - - - E 15 19 8 10 1014.9 - -
19/12:00pm 26.5 - - - - ENE 15 19 8 10 1015.3 1015.3 -
19/11:30am 26.4 - - - - E 17 19 9 10 1015.8 - -
19/11:00am 26.4 - - - - E 17 20 9 11 1016.2 1016.2 -
19/10:30am 26.4 - - - - ENE 15 19 8 10 1016.4 - -
19/10:00am 26.6 - - - - E 17 20 9 11 1016.6 1016.6 -
19/09:30am 26.4 - - - - E 17 20 9 11 1016.6 - -
19/09:00am 26.4 - - - - ENE 19 22 10 12 1016.4 1016.4 -
19/08:30am 26.3 - - - - ENE 17 22 9 12 1016.4 - -
19/08:00am 26.1 - - - - E 19 22 10 12 1016.0 1016.0 -
19/07:30am 26.1 - - - - E 20 24 11 13 1015.8 - -
19/07:00am 26.1 - - - - ENE 19 22 10 12 1015.6 1015.6 -
19/06:30am 26.1 - - - - ENE 20 24 11 13 1015.4 - -
19/06:00am 26.0 - - - - ENE 20 26 11 14 1015.0 1015.0 -
19/05:30am 26.0 - - - - ENE 17 20 9 11 1014.7 - -
19/05:00am 26.0 - - - - ENE 15 19 8 10 1014.6 1014.6 -
19/04:30am 26.0 - - - - ENE 11 17 6 9 1014.2 - -
19/04:00am 26.0 - - - - ENE 11 19 6 10 1014.2 1014.2 -
19/03:30am 26.0 - - - - ENE 15 19 8 10 1014.1 - -
19/03:00am 26.1 - - - - ENE 15 19 8 10 1014.2 1014.2 -
19/02:30am 26.0 - - - - ENE 13 15 7 8 1014.4 - -
19/02:00am 26.1 - - - - ENE 13 17 7 9 1014.7 1014.7 -
19/01:30am 26.2 - - - - ENE 13 19 7 10 1015.0 - -
19/01:00am 26.3 - - - - ENE 13 20 7 11 1015.2 1015.2 -
19/12:30am 26.2 - - - - ENE 15 20 8 11 1015.6 - -
19/12:00am 26.2 - - - - ENE 13 19 7 10 1015.7 1015.7 -
 
Date/Time
EST
Temp
°C
App
Temp
°C
Dew
Point
Rel
Hum
%
Delta-T
°C
Wind Press
QNH
hPa
Press
MSL
hPa
Rain
since 9 am
mm
Dir
 
Spd
km/h
Gust
km/h
Spd
kts
Gust
kts
18/11:30pm 26.2 - - - - ENE 13 20 7 11 1015.9 - -
18/11:00pm 26.4 - - - - ENE 19 22 10 12 1016.2 1016.2 -
18/10:30pm 26.3 - - - - ENE 11 17 6 9 1016.2 - -
18/10:00pm 26.2 - - - - ENE 13 19 7 10 1016.3 1016.3 -
18/09:30pm 26.3 - - - - ENE 13 17 7 9 1016.3 - -
18/09:00pm 26.4 - - - - ENE 15 19 8 10 1016.3 1016.3 -
18/08:30pm 26.4 - - - - ENE 17 20 9 11 1016.1 - -
18/08:00pm 26.3 - - - - ENE 15 20 8 11 1015.7 1015.7 -
18/07:30pm 26.3 - - - - ENE 13 19 7 10 1015.3 - -
18/07:00pm 26.3 - - - - ENE 13 17 7 9 1014.8 1014.8 -
18/06:30pm 26.3 - - - - ENE 15 19 8 10 1014.4 - -
18/06:00pm 26.4 - - - - ENE 13 20 7 11 1014.2 1014.2 -
18/05:30pm 26.4 - - - - ENE 15 19 8 10 1014.0 - -
18/05:00pm 26.6 - - - - ENE 17 20 9 11 1013.8 1013.8 -
18/04:30pm 26.6 - - - - ENE 17 22 9 12 1013.8 - -
18/04:00pm 26.5 - - - - ENE 19 22 10 12 1013.5 1013.5 -
18/03:30pm 26.3 - - - - ENE 19 22 10 12 1013.4 - -
18/03:00pm 26.5 - - - - ENE 17 20 9 11 1013.3 1013.3 -
18/02:30pm 26.5 - - - - E 19 22 10 12 1013.4 - -
18/02:00pm 26.4 - - - - ENE 17 20 9 11 1013.6 1013.6 -
18/01:30pm 26.3 - - - - E 17 20 9 11 1013.8 - -
18/01:00pm 26.5 - - - - E 17 20 9 11 1014.1 1014.1 -
18/12:30pm 26.4 - - - - E 17 22 9 12 1014.4 - -
18/12:00pm 26.5 - - - - E 19 22 10 12 1014.7 1014.7 -
18/11:30am 26.5 - - - - E 17 20 9 11 1015.1 - -
18/11:00am 26.1 - - - - ENE 7 11 4 6 1015.4 1015.4 -
18/10:30am 25.9 - - - - ESE 11 17 6 9 1015.8 - -
18/10:00am 25.5 - - - - SSE 11 13 6 7 1015.9 1015.9 -
18/09:30am 25.4 - - - - SSE 11 17 6 9 1016.0 - -
18/09:00am 25.2 - - - - SSE 13 17 7 9 1015.9 1015.9 -
18/08:30am 24.8 - - - - SSE 17 20 9 11 1015.6 - -
18/08:00am 24.3 - - - - SSE 17 20 9 11 1015.5 1015.5 -
18/07:30am 25.1 - - - - SSE 15 19 8 10 1015.3 - -
18/07:00am 25.1 - - - - SSE 15 19 8 10 1015.1 1015.1 -
18/06:30am 25.0 - - - - SSE 15 17 8 9 1014.8 - -
18/06:00am 25.2 - - - - SE 11 15 6 8 1014.5 1014.5 -
18/05:30am 25.3 - - - - SSE 11 15 6 8 1014.4 - -
18/05:00am 25.4 - - - - SE 13 19 7 10 1014.1 1014.1 -
18/04:30am 25.9 - - - - E 15 19 8 10 1014.0 - -
18/04:00am 25.9 - - - - E 17 22 9 12 1014.1 1014.1 -
18/03:30am 25.9 - - - - E 17 20 9 11 1014.0 - -
18/03:00am 25.9 - - - - E 15 19 8 10 1014.0 1014.0 -
18/02:30am 25.9 - - - - E 13 17 7 9 1014.3 - -
18/02:00am 25.9 - - - - E 15 19 8 10 1014.5 1014.5 -
18/01:30am 26.1 - - - - E 15 20 8 11 1014.7 - -
18/01:00am 26.1 - - - - E 17 20 9 11 1015.2 1015.2 -
18/12:30am 26.1 - - - - ENE 19 22 10 12 1015.5 - -
18/12:00am 26.4 - - - - E 15 20 8 11 1015.8 1015.8 -
 
Date/Time
EST
Temp
°C
App
Temp
°C
Dew
Point
Rel
Hum
%
Delta-T
°C
Wind Press
QNH
hPa
Press
MSL
hPa
Rain
since 9 am
mm
Dir
 
Spd
km/h
Gust
km/h
Spd
kts
Gust
kts
17/11:30pm 26.3 - - - - E 15 20 8 11 1016.2 - -
17/11:00pm 26.4 - - - - E 17 20 9 11 1016.4 1016.4 -
17/10:30pm 26.4 - - - - E 19 22 10 12 1016.4 - -
17/10:00pm 26.4 - - - - ENE 17 22 9 12 1016.4 1016.4 -
17/09:30pm 26.4 - - - - E 19 20 10 11 1016.4 - -
17/09:00pm 26.4 - - - - E 19 22 10 12 1016.3 1016.3 -

Other Formats:

Comma delimited format used in spreadsheet applications
http://www.bom.gov.au/fwo/IDQ60801/IDQ60801.94297.axf

JavaScript Object Notation format (JSON) in row-major order
http://www.bom.gov.au/fwo/IDQ60801/IDQ60801.94297.json